createdAt,value
2022-08-26T00:04:35.101Z,6.80
2022-08-26T00:09:40.158Z,8.57
2022-08-26T00:14:42.184Z,8.45
2022-08-26T00:19:43.825Z,9.52
2022-08-26T00:24:48.093Z,8.85
2022-08-26T00:29:52.571Z,8.27
2022-08-26T00:34:55.012Z,7.60
2022-08-26T00:39:56.764Z,7.10
2022-08-26T00:45:02.603Z,8.25
2022-08-26T00:50:16.120Z,7.78
2022-08-26T00:55:37.856Z,10.82
2022-08-26T01:00:39.954Z,7.28
2022-08-26T01:05:43.000Z,8.40
2022-08-26T01:10:45.791Z,8.05
2022-08-26T01:15:54.054Z,9.55
2022-08-26T01:21:33.740Z,10.07
2022-08-26T01:26:43.097Z,10.57
2022-08-26T01:31:52.923Z,8.90
2022-08-26T01:37:07.004Z,10.05
2022-08-26T01:42:14.707Z,6.82
2022-08-26T01:47:17.941Z,9.75
2022-08-26T01:52:28.053Z,7.05
2022-08-26T01:57:31.075Z,7.78
2022-08-26T02:02:32.722Z,8.63
2022-08-26T02:07:34.749Z,10.95
2022-08-26T02:12:37.246Z,8.75
2022-08-26T02:17:44.719Z,9.77
2022-08-26T02:22:47.601Z,8.27
2022-08-26T02:27:49.320Z,8.73
2022-08-26T02:32:51.901Z,7.22
2022-08-26T02:37:53.578Z,9.65
2022-08-26T02:42:56.019Z,8.25
2022-08-26T02:47:59.697Z,10.57
2022-08-26T02:53:01.943Z,9.73
2022-08-26T02:58:04.476Z,8.15
2022-08-26T03:03:06.570Z,10.05
2022-08-26T03:08:11.769Z,9.13
2022-08-26T03:13:13.910Z,12.15
2022-08-26T03:18:16.107Z,10.93
2022-08-26T03:23:18.595Z,8.45
2022-08-26T03:28:20.294Z,11.05
2022-08-26T03:33:22.393Z,10.10
2022-08-26T03:38:27.110Z,8.82
2022-08-26T03:43:28.756Z,9.52
2022-08-26T03:48:30.386Z,10.30
2022-08-26T03:53:31.985Z,10.52
2022-08-26T03:58:38.033Z,9.30
2022-08-26T04:04:00.018Z,11.45
2022-08-26T04:09:06.518Z,14.15
2022-08-26T04:14:13.473Z,10.68
2022-08-26T04:19:16.735Z,12.93
2022-08-26T04:24:20.640Z,10.15
2022-08-26T04:29:25.421Z,10.98
2022-08-26T04:34:28.974Z,18.20
2022-08-26T04:39:31.154Z,16.20
2022-08-26T04:44:35.866Z,17.10
2022-08-26T04:49:38.311Z,15.30
2022-08-26T04:54:42.008Z,12.32
2022-08-26T04:59:43.772Z,12.13
2022-08-26T05:04:45.504Z,18.98
2022-08-26T05:09:47.105Z,20.75
2022-08-26T05:14:48.805Z,19.25
2022-08-26T05:19:50.755Z,17.75
2022-08-26T05:24:52.371Z,22.30
2022-08-26T05:29:57.424Z,18.15
2022-08-26T05:34:59.579Z,22.15
2022-08-26T05:40:04.861Z,26.55
2022-08-26T05:45:07.337Z,17.27
2022-08-26T05:50:09.380Z,39.42
2022-08-26T05:55:11.031Z,62.22
2022-08-26T06:00:15.457Z,66.05
2022-08-26T06:05:17.693Z,74.82
2022-08-26T06:10:32.243Z,71.97
2022-08-26T06:15:35.624Z,57.53
2022-08-26T06:20:37.759Z,63.65
2022-08-26T06:25:39.543Z,59.10
2022-08-26T06:30:41.746Z,78.40
2022-08-26T06:35:43.755Z,73.80
2022-08-26T06:40:50.998Z,71.43
2022-08-26T06:46:01.940Z,77.65
2022-08-26T06:51:13.224Z,69.35
2022-08-26T06:56:17.995Z,73.72
2022-08-26T07:01:24.430Z,65.13
2022-08-26T07:06:28.298Z,57.58
2022-08-26T07:11:30.795Z,63.78
2022-08-26T07:16:33.231Z,60.38
2022-08-26T07:21:34.864Z,61.08
2022-08-26T07:26:36.474Z,58.22
2022-08-26T07:31:42.419Z,60.65
2022-08-26T07:36:44.941Z,55.55
2022-08-26T07:41:47.928Z,55.80
2022-08-26T07:46:53.074Z,52.88
2022-08-26T07:51:55.379Z,46.65
2022-08-26T07:57:00.008Z,52.17
2022-08-26T08:02:01.965Z,45.50
2022-08-26T08:07:03.676Z,46.25
2022-08-26T08:12:14.274Z,45.80
2022-08-26T08:17:16.474Z,52.40
2022-08-26T08:22:19.687Z,46.38
2022-08-26T08:27:23.833Z,45.63
2022-08-26T08:32:25.880Z,43.47
2022-08-26T08:37:27.481Z,46.15
2022-08-26T08:42:32.692Z,48.65
2022-08-26T08:47:42.964Z,46.60
2022-08-26T08:52:50.947Z,40.67
2022-08-26T08:58:16.460Z,44.63
2022-08-26T09:03:30.827Z,44.53
2022-08-26T09:08:36.946Z,40.88
2022-08-26T09:13:39.855Z,45.65
2022-08-26T09:18:45.981Z,50.70
2022-08-26T09:23:49.628Z,42.60
2022-08-26T09:29:00.770Z,48.30
2022-08-26T09:34:23.179Z,48.50
2022-08-26T09:39:27.405Z,45.17
2022-08-26T09:44:29.971Z,38.75
2022-08-26T09:49:39.901Z,41.40
2022-08-26T09:54:46.028Z,38.58
2022-08-26T09:59:49.768Z,42.67
2022-08-26T10:04:56.641Z,39.47
2022-08-26T10:09:58.331Z,44.85
2022-08-26T10:15:08.286Z,41.88
2022-08-26T10:20:28.867Z,38.80
2022-08-26T10:25:43.263Z,38.00
2022-08-26T10:30:50.974Z,37.33
2022-08-26T10:35:59.777Z,31.90
2022-08-26T10:41:10.786Z,32.00
2022-08-26T10:46:19.752Z,30.13
2022-08-26T10:51:29.723Z,28.17
2022-08-26T10:57:03.706Z,26.17
2022-08-26T11:02:15.501Z,27.05
2022-08-26T11:07:37.683Z,25.23
2022-08-26T11:12:39.985Z,25.45
2022-08-26T11:17:44.728Z,19.85
2022-08-26T11:22:47.883Z,22.27
2022-08-26T11:27:52.410Z,20.58
2022-08-26T11:32:57.880Z,18.80
2022-08-26T11:38:22.017Z,20.30
2022-08-26T11:43:30.235Z,26.27
2022-08-26T11:48:34.955Z,18.45
2022-08-26T11:53:43.132Z,18.60
2022-08-26T11:58:46.913Z,16.25
2022-08-26T12:03:51.275Z,16.02
2022-08-26T12:08:55.742Z,16.15
2022-08-26T12:14:04.947Z,18.20
2022-08-26T12:19:27.606Z,16.48
2022-08-26T12:24:29.939Z,17.08
2022-08-26T12:29:31.668Z,23.15
2022-08-26T12:34:33.388Z,18.13
2022-08-26T12:39:37.519Z,19.90
2022-08-26T12:44:53.826Z,19.77
2022-08-26T12:50:25.465Z,17.95
2022-08-26T12:55:52.852Z,15.60
2022-08-26T13:01:14.739Z,14.63
2022-08-26T13:06:22.429Z,18.10
2022-08-26T13:11:31.613Z,18.73
2022-08-26T13:16:33.968Z,17.83
2022-08-26T13:21:49.867Z,22.60
2022-08-26T13:26:51.878Z,17.23
2022-08-26T13:31:53.703Z,20.45
2022-08-26T13:36:56.493Z,16.15
2022-08-26T13:41:58.267Z,18.42
2022-08-26T13:46:59.868Z,16.95
2022-08-26T13:52:03.742Z,16.45
2022-08-26T13:57:06.109Z,15.45
2022-08-26T14:02:07.726Z,14.57
2022-08-26T14:07:11.624Z,16.80
2022-08-26T14:12:13.242Z,16.58
2022-08-26T14:17:21.854Z,16.05
2022-08-26T14:22:23.581Z,14.10
2022-08-26T14:27:25.498Z,13.13
2022-08-26T14:32:28.841Z,12.63
2022-08-26T14:37:30.463Z,12.15
2022-08-26T14:42:32.449Z,11.20
2022-08-26T14:47:34.046Z,13.00
2022-08-26T14:52:55.663Z,11.52
2022-08-26T14:57:57.302Z,13.50
2022-08-26T15:02:59.170Z,12.82
2022-08-26T15:08:02.320Z,14.20
2022-08-26T15:13:04.275Z,22.83
2022-08-26T15:18:06.164Z,16.13
2022-08-26T15:23:08.178Z,18.55
2022-08-26T15:28:10.294Z,16.30
2022-08-26T15:33:15.340Z,22.75
2022-08-26T15:38:18.086Z,17.35
2022-08-26T15:43:28.774Z,16.13
2022-08-26T15:48:31.058Z,17.00
2022-08-26T15:53:34.844Z,17.17
2022-08-26T15:58:36.737Z,18.92
2022-08-26T16:03:38.615Z,18.50
2022-08-26T16:08:40.450Z,15.80
2022-08-26T16:13:42.084Z,16.98
2022-08-26T16:18:44.169Z,13.13
2022-08-26T16:23:46.676Z,13.82
2022-08-26T16:28:48.412Z,17.08
2022-08-26T16:33:50.071Z,16.27
2022-08-26T16:38:55.270Z,14.63
2022-08-26T16:43:57.330Z,17.08
2022-08-26T16:48:59.790Z,23.23
2022-08-26T16:54:02.753Z,14.45
2022-08-26T16:59:06.223Z,16.27
2022-08-26T17:04:07.907Z,19.67
2022-08-26T17:09:09.597Z,13.18
2022-08-26T17:14:11.616Z,17.58
2022-08-26T17:19:15.891Z,13.90
2022-08-26T17:24:17.577Z,19.42
2022-08-26T17:29:20.194Z,14.27
2022-08-26T17:34:23.167Z,12.32
2022-08-26T17:39:24.905Z,12.85
2022-08-26T17:44:26.702Z,12.93
2022-08-26T17:49:28.752Z,12.13
2022-08-26T17:54:30.360Z,13.95
2022-08-26T17:59:35.533Z,11.05
2022-08-26T18:04:37.150Z,12.70
2022-08-26T18:09:38.945Z,10.35
2022-08-26T18:14:40.580Z,11.65
2022-08-26T18:24:55.408Z,15.88
2022-08-26T18:30:01.554Z,13.07
2022-08-26T18:35:03.722Z,15.65
2022-08-26T18:40:07.679Z,20.08
2022-08-26T18:45:10.127Z,11.88
2022-08-26T18:50:18.401Z,12.73
2022-08-26T18:55:20.093Z,11.82
2022-08-26T19:00:21.744Z,15.55
2022-08-26T19:05:23.410Z,13.13
2022-08-26T19:10:26.396Z,12.00
2022-08-26T19:15:28.017Z,12.93
2022-08-26T19:20:29.652Z,12.75
2022-08-26T19:25:31.371Z,13.23
2022-08-26T19:30:33.009Z,10.55
2022-08-26T19:35:35.681Z,11.38
2022-08-26T19:40:38.576Z,15.23
2022-08-26T19:45:40.391Z,13.40
2022-08-26T19:50:42.339Z,10.77
2022-08-26T19:55:43.965Z,10.60
2022-08-26T20:00:45.759Z,9.75
2022-08-26T20:05:47.492Z,12.98
2022-08-26T20:10:50.238Z,11.38
2022-08-26T20:15:51.882Z,13.23
2022-08-26T20:21:12.271Z,13.70
2022-08-26T20:26:14.090Z,12.00
2022-08-26T20:31:16.674Z,13.40
2022-08-26T20:36:20.533Z,12.70
2022-08-26T20:41:25.417Z,11.05
2022-08-26T20:46:27.236Z,12.25
2022-08-26T20:51:29.157Z,10.68
2022-08-26T20:56:30.848Z,10.10
2022-08-26T21:01:35.020Z,10.18
2022-08-26T21:06:38.324Z,10.65
2022-08-26T21:11:41.263Z,11.80
2022-08-26T21:16:43.470Z,13.68
2022-08-26T21:21:47.836Z,8.93
2022-08-26T21:26:49.887Z,9.88
2022-08-26T21:31:51.683Z,11.75
2022-08-26T21:36:54.272Z,11.32
2022-08-26T21:41:55.971Z,11.57
2022-08-26T21:46:57.584Z,9.95
2022-08-26T21:52:00.436Z,10.38
2022-08-26T21:57:02.597Z,10.68
2022-08-26T22:02:07.800Z,10.38
2022-08-26T22:07:09.815Z,12.13
2022-08-26T22:12:12.210Z,11.02
2022-08-26T22:17:13.897Z,9.07
2022-08-26T22:22:15.675Z,11.05
2022-08-26T22:27:17.606Z,10.88
2022-08-26T22:32:19.210Z,11.82
2022-08-26T22:37:20.865Z,10.18
2022-08-26T22:42:22.464Z,13.00
2022-08-26T22:47:24.142Z,10.00
2022-08-26T22:52:25.838Z,9.38
2022-08-26T22:57:27.862Z,11.13
2022-08-26T23:02:29.470Z,11.60
2022-08-26T23:07:31.077Z,8.25
2022-08-26T23:12:33.529Z,15.48
2022-08-26T23:17:36.188Z,10.88
2022-08-26T23:22:37.968Z,11.48
2022-08-26T23:27:42.063Z,10.63
2022-08-26T23:32:43.674Z,11.23
2022-08-26T23:37:48.132Z,8.98
2022-08-26T23:42:51.962Z,8.13
2022-08-26T23:47:54.173Z,10.75
2022-08-26T23:53:08.800Z,11.98
2022-08-26T23:58:11.690Z,7.88
